Terminal Aerodrome Forecast
Issued by NWS Cleveland, OH

Home | Current Version | Previous Version | Graphics & Text | Print | Product List | Glossary On
Versions: 1 2 3 4 5 6 7 8 9 10 11 12 13 14 15 16 17 18 19
000
FTUS41 KCLE 250500
TAFYNG
TAF
KYNG 250538Z 2506/2606 24015G25KT P6SM OVC020
     FM250900 24015G25KT P6SM OVC015
      TEMPO 2510/2514 3SM -RASN BR
     FM251400 24015G25KT P6SM OVC015
     FM251900 22015G25KT P6SM OVC025
     FM260000 22008KT P6SM BKN025=

USA.gov is the U.S. government's official web portal to all federal, state and local government web resources and services.